Time;durP1;ratioP1;P1;durP2;ratioP2;P2;SDS_P1;SDS_P2;PMS_P1;PMS_P2;Temp;Humidity;BMP_temperature;BMP_pressure;BME280_temperature;BME280_humidity;BME280_pressure;Samples;Min_cycle;Max_cycle;Signal;HPM_P1;HPM_P2
2023/03/31 00:00:32;;;;;;;11.23;6.45;;;9.50;65.60;;;;;;4722226;29;114812;-84
2023/03/31 00:03:01;;;;;;;10.85;7.40;;;9.50;65.50;;;;;;4702144;29;115429;-84
2023/03/31 00:05:32;;;;;;;8.98;6.07;;;9.50;65.40;;;;;;4733070;29;115204;-84
2023/03/31 00:08:03;;;;;;;9.93;6.88;;;9.50;65.30;;;;;;4690563;29;116760;-84
2023/03/31 00:10:32;;;;;;;7.57;5.75;;;9.50;65.30;;;;;;4720341;29;115097;-84
2023/03/31 00:13:00;;;;;;;8.85;6.07;;;9.60;65.20;;;;;;4724386;29;115247;-85
2023/03/31 00:15:27;;;;;;;8.23;5.65;;;9.50;65.00;;;;;;4711959;29;116877;-84
2023/03/31 00:17:59;;;;;;;8.15;5.10;;;9.60;64.90;;;;;;4739115;29;114960;-84
2023/03/31 00:20:27;;;;;;;6.55;5.18;;;9.60;64.90;;;;;;4705124;29;114967;-84
2023/03/31 00:22:56;;;;;;;8.18;4.93;;;9.60;64.80;;;;;;4708125;29;115300;-85
2023/03/31 00:25:23;;;;;;;7.30;4.68;;;9.60;64.70;;;;;;4689308;29;114699;-85
2023/03/31 00:27:54;;;;;;;7.78;4.60;;;9.60;64.60;;;;;;4735257;29;114594;-84
2023/03/31 00:30:22;;;;;;;8.23;4.80;;;9.60;64.50;;;;;;4707630;29;114740;-84
2023/03/31 00:32:50;;;;;;;6.38;3.97;;;9.60;64.50;;;;;;4724383;29;115200;-84
2023/03/31 00:35:19;;;;;;;5.95;3.83;;;9.50;64.50;;;;;;4694660;29;114806;-85
2023/03/31 00:37:47;;;;;;;5.32;3.67;;;9.50;64.50;;;;;;4692329;29;114677;-84
2023/03/31 00:40:15;;;;;;;5.55;3.78;;;9.50;64.50;;;;;;4689479;29;114680;-84
2023/03/31 00:42:42;;;;;;;5.60;3.85;;;9.40;64.50;;;;;;4720986;29;115525;-84
2023/03/31 00:45:13;;;;;;;7.07;3.47;;;9.40;64.40;;;;;;4706420;29;114937;-84
2023/03/31 00:47:54;;;;;;;4.90;3.53;;;9.40;64.60;;;;;;4707053;29;114948;-84
2023/03/31 00:50:27;;;;;;;6.57;3.67;;;9.30;64.60;;;;;;4680528;29;114641;-84
2023/03/31 00:52:59;;;;;;;5.82;3.28;;;9.30;64.70;;;;;;4706114;29;117639;-84
2023/03/31 00:55:39;;;;;;;5.43;3.28;;;9.20;64.70;;;;;;4717010;29;114656;-84
2023/03/31 00:58:06;;;;;;;5.60;3.17;;;9.20;64.80;;;;;;4710272;29;114820;-84
2023/03/31 01:00:34;;;;;;;6.18;3.40;;;9.20;64.80;;;;;;4724857;29;114730;-84
2023/03/31 01:03:05;;;;;;;5.18;3.35;;;9.20;64.90;;;;;;4724016;29;115278;-84
2023/03/31 01:06:09;;;;;;;5.75;3.13;;;9.10;64.90;;;;;;4738817;29;114752;-84
2023/03/31 01:08:37;;;;;;;4.68;3.00;;;9.10;65.10;;;;;;4720938;29;114682;-84
2023/03/31 01:11:06;;;;;;;5.22;2.85;;;9.10;65.10;;;;;;4708976;29;114872;-84
2023/03/31 01:13:35;;;;;;;5.32;3.15;;;9.00;65.20;;;;;;4706147;29;115262;-84
2023/03/31 01:16:02;;;;;;;4.72;3.20;;;9.00;65.30;;;;;;4706247;29;114853;-84
2023/03/31 01:18:33;;;;;;;5.75;3.13;;;9.00;65.20;;;;;;4721076;29;114850;-83
2023/03/31 01:21:31;;;;;;;5.45;3.13;;;9.00;65.30;;;;;;4721479;29;114643;-84
2023/03/31 01:24:34;;;;;;;4.55;3.13;;;9.00;65.40;;;;;;4737088;29;119004;-83
2023/03/31 01:27:49;;;;;;;5.57;3.20;;;8.90;65.50;;;;;;4738329;29;114938;-84
2023/03/31 01:31:14;;;;;;;5.72;3.25;;;8.80;65.50;;;;;;4738976;29;114720;-83
2023/03/31 01:33:59;;;;;;;5.25;3.08;;;8.80;65.50;;;;;;4710060;29;114814;-84
2023/03/31 01:36:41;;;;;;;;;;;8.70;65.70;;;;;;4740912;29;115293;-84
2023/03/31 01:39:58;;;;;;;4.97;2.95;;;8.70;65.20;;;;;;4741331;29;115216;-83
2023/03/31 01:42:47;;;;;;;6.05;2.75;;;8.70;65.80;;;;;;4741439;29;115091;-83
2023/03/31 01:45:20;;;;;;;5.43;2.95;;;8.70;66.00;;;;;;4720960;29;114612;-84
2023/03/31 01:48:41;;;;;;;5.55;3.47;;;8.70;65.90;;;;;;4721408;29;115287;-84
2023/03/31 01:51:35;;;;;;;6.80;3.47;;;8.70;65.80;;;;;;4725822;29;118885;-83
2023/03/31 01:54:51;;;;;;;6.07;3.85;;;8.70;65.90;;;;;;4732905;29;115475;-84
2023/03/31 01:57:38;;;;;;;5.15;3.80;;;8.70;66.00;;;;;;4729475;29;114827;-85
2023/03/31 02:00:08;;;;;;;5.07;3.80;;;8.70;66.00;;;;;;4725728;29;115304;-84
2023/03/31 02:03:10;;;;;;;5.57;3.85;;;8.70;66.10;;;;;;4747095;29;114735;-84
2023/03/31 02:05:46;;;;;;;5.95;3.55;;;8.70;66.10;;;;;;4718906;29;114676;-84
2023/03/31 02:08:22;;;;;;;6.80;4.18;;;8.70;66.10;;;;;;4726146;29;114911;-84
2023/03/31 02:10:50;;;;;;;6.57;3.90;;;8.70;66.10;;;;;;4708899;29;119203;-84
2023/03/31 02:13:17;;;;;;;5.88;3.70;;;8.70;66.00;;;;;;4719723;29;114927;-84
2023/03/31 02:15:50;;;;;;;6.32;4.05;;;8.80;66.00;;;;;;4709009;29;114599;-84
2023/03/31 02:18:24;;;;;;;6.40;4.15;;;8.70;66.00;;;;;;4739229;29;115371;-85
2023/03/31 02:20:53;;;;;;;6.72;4.53;;;8.70;66.00;;;;;;4722554;29;115263;-85
2023/03/31 02:23:25;;;;;;;5.90;4.65;;;8.70;66.00;;;;;;4719984;29;116726;-84
2023/03/31 02:25:56;;;;;;;4.78;4.05;;;8.70;66.00;;;;;;4721407;29;114734;-85
2023/03/31 02:28:25;;;;;;;7.43;4.20;;;8.70;66.00;;;;;;4706489;29;114890;-85
2023/03/31 02:31:15;;;;;;;7.80;4.35;;;8.60;66.10;;;;;;4705501;29;115265;-86
2023/03/31 02:33:42;;;;;;;6.38;4.63;;;8.70;66.20;;;;;;4705157;29;118375;-85
2023/03/31 02:36:10;;;;;;;5.95;4.63;;;8.60;66.20;;;;;;4706463;29;114750;-85
2023/03/31 02:38:46;;;;;;;7.20;4.63;;;8.50;66.20;;;;;;4706524;29;114606;-84
2023/03/31 02:41:13;;;;;;;7.22;5.10;;;8.60;66.30;;;;;;4720015;29;115908;-84
2023/03/31 02:43:40;;;;;;;6.20;5.10;;;8.50;66.40;;;;;;4713947;29;114681;-85
2023/03/31 02:46:11;;;;;;;7.15;4.88;;;8.50;66.40;;;;;;4714836;29;114578;-85
2023/03/31 02:48:46;;;;;;;6.80;4.82;;;8.60;66.60;;;;;;4685855;29;114832;-84
2023/03/31 02:51:28;;;;;;;7.18;4.90;;;8.50;66.60;;;;;;4684359;30;115209;-85
2023/03/31 02:54:54;;;;;;;7.85;5.25;;;8.40;66.60;;;;;;4675221;29;114765;-83
2023/03/31 02:58:14;;;;;;;6.32;5.38;;;8.50;66.40;;;;;;4688541;29;114616;-84
2023/03/31 03:01:06;;;;;;;7.60;4.88;;;8.40;66.80;;;;;;4680076;29;114751;-83
2023/03/31 03:04:24;;;;;;;6.68;4.97;;;8.40;66.90;;;;;;4716479;29;115269;-83
2023/03/31 03:07:04;;;;;;;7.20;4.90;;;8.40;66.90;;;;;;4705118;29;114631;-83
2023/03/31 03:09:56;;;;;;;8.35;4.47;;;8.40;66.90;;;;;;4673749;29;114529;-83
2023/03/31 03:12:49;;;;;;;7.65;4.38;;;8.40;67.00;;;;;;4717167;29;114684;-84
2023/03/31 03:15:22;;;;;;;6.03;4.15;;;8.40;66.80;;;;;;4701500;29;115562;-84
2023/03/31 03:17:49;;;;;;;5.27;4.23;;;8.40;66.80;;;;;;4702197;29;114874;-84
2023/03/31 03:20:18;;;;;;;6.28;4.15;;;8.50;66.70;;;;;;4687838;29;119619;-84
2023/03/31 03:22:45;;;;;;;5.40;3.97;;;8.50;66.80;;;;;;4702076;29;115421;-83
2023/03/31 03:25:15;;;;;;;6.38;4.05;;;8.50;66.70;;;;;;4702363;29;115284;-84
2023/03/31 03:27:43;;;;;;;6.20;4.32;;;8.50;66.80;;;;;;4687321;29;118232;-83
2023/03/31 03:30:11;;;;;;;5.30;4.00;;;8.60;66.70;;;;;;4702164;29;114840;-82
2023/03/31 03:32:38;;;;;;;6.97;4.30;;;8.60;66.70;;;;;;4654587;29;114633;-83
2023/03/31 03:35:06;;;;;;;8.82;4.55;;;8.60;66.60;;;;;;4684130;29;115239;-83
2023/03/31 03:37:33;;;;;;;6.47;4.53;;;8.70;66.60;;;;;;4685030;29;115271;-83
2023/03/31 03:40:05;;;;;;;7.20;4.40;;;8.70;66.50;;;;;;4702880;29;114625;-84
2023/03/31 03:42:34;;;;;;;7.43;4.00;;;8.70;66.50;;;;;;4702211;29;114936;-83
2023/03/31 03:45:06;;;;;;;7.15;4.18;;;8.70;66.40;;;;;;4721149;29;115395;-84
2023/03/31 03:47:35;;;;;;;6.43;4.22;;;8.70;66.40;;;;;;4742486;29;115196;-84
2023/03/31 03:50:03;;;;;;;7.88;4.68;;;8.70;66.20;;;;;;4706628;29;114748;-84
2023/03/31 03:52:31;;;;;;;9.50;5.35;;;8.70;66.20;;;;;;4704393;29;114588;-84
2023/03/31 03:55:00;;;;;;;8.68;5.50;;;8.70;66.10;;;;;;4657382;29;118075;-85
2023/03/31 03:57:28;;;;;;;6.53;4.20;;;8.70;66.10;;;;;;4701964;29;114903;-85
2023/03/31 03:59:55;;;;;;;5.60;4.28;;;8.70;66.10;;;;;;4700726;29;114513;-85
2023/03/31 04:02:23;;;;;;;7.15;3.97;;;8.70;66.10;;;;;;4703360;29;114920;-85
2023/03/31 04:04:54;;;;;;;7.05;4.20;;;8.70;66.00;;;;;;4703757;29;116828;-85
2023/03/31 04:07:21;;;;;;;5.57;3.78;;;8.70;66.00;;;;;;4689373;29;118407;-85
2023/03/31 04:09:49;;;;;;;6.40;4.15;;;8.70;66.00;;;;;;4706146;29;114838;-85
2023/03/31 04:12:24;;;;;;;6.88;4.05;;;8.70;66.00;;;;;;4704723;29;114904;-84
2023/03/31 04:14:51;;;;;;;6.15;3.78;;;8.70;66.00;;;;;;4661409;29;116659;-84
2023/03/31 04:17:31;;;;;;;8.13;4.53;;;8.70;66.10;;;;;;4674589;29;115236;-84
2023/03/31 04:20:04;;;;;;;8.63;5.28;;;8.60;66.20;;;;;;4706984;29;114471;-84
2023/03/31 04:22:34;;;;;;;8.80;5.57;;;8.60;66.20;;;;;;4702813;29;114902;-84
2023/03/31 04:25:03;;;;;;;8.90;5.97;;;8.50;66.20;;;;;;4703965;29;115233;-84
2023/03/31 04:27:32;;;;;;;10.15;6.97;;;8.50;66.30;;;;;;4703026;29;117441;-84
2023/03/31 04:30:00;;;;;;;10.48;7.13;;;8.50;66.30;;;;;;4675440;29;114561;-84
2023/03/31 04:32:31;;;;;;;10.73;7.47;;;8.40;66.40;;;;;;4674810;29;115128;-83
2023/03/31 04:35:03;;;;;;;12.02;7.28;;;8.40;66.50;;;;;;4688879;29;118899;-83
2023/03/31 04:37:33;;;;;;;18.50;9.07;;;8.40;66.50;;;;;;4702671;29;114865;-84
2023/03/31 04:40:06;;;;;;;9.57;7.10;;;8.40;66.50;;;;;;4705184;29;114710;-82
2023/03/31 04:42:36;;;;;;;10.15;7.10;;;8.30;66.60;;;;;;4719635;29;114691;-83
2023/03/31 04:45:05;;;;;;;12.05;7.00;;;8.30;66.60;;;;;;4703573;29;115292;-85
2023/03/31 04:47:33;;;;;;;12.55;7.57;;;8.30;66.80;;;;;;4702886;29;116167;-84
2023/03/31 04:50:00;;;;;;;11.60;7.32;;;8.30;66.70;;;;;;4704351;29;114562;-82
2023/03/31 04:52:27;;;;;;;11.23;7.68;;;8.30;66.70;;;;;;4711147;29;114986;-81
2023/03/31 04:54:55;;;;;;;12.55;7.93;;;8.30;66.80;;;;;;4735113;29;115427;-83
2023/03/31 04:57:22;;;;;;;10.43;7.40;;;8.40;66.90;;;;;;4705964;29;115107;-80
2023/03/31 04:59:50;;;;;;;12.25;8.15;;;8.60;66.90;;;;;;4721583;29;114806;-83
2023/03/31 05:02:22;;;;;;;12.18;8.15;;;8.70;66.70;;;;;;4705951;29;115415;-82
2023/03/31 05:04:51;;;;;;;17.43;10.00;;;8.80;66.50;;;;;;4721748;29;115303;-82
2023/03/31 05:07:19;;;;;;;13.68;10.38;;;8.90;66.10;;;;;;4722828;29;115171;-84
2023/03/31 05:09:46;;;;;;;12.88;8.85;;;9.00;66.30;;;;;;4679710;29;117758;-82
2023/03/31 05:12:13;;;;;;;14.20;9.45;;;9.20;66.70;;;;;;4707648;29;114455;-83
2023/03/31 05:14:41;;;;;;;11.57;8.00;;;9.30;66.20;;;;;;4722627;29;115231;-83
2023/03/31 05:17:08;;;;;;;10.57;8.52;;;9.60;65.60;;;;;;4722217;29;114709;-84
2023/03/31 05:19:35;;;;;;;13.20;8.82;;;9.70;65.00;;;;;;4707679;29;114711;-83
2023/03/31 05:22:02;;;;;;;14.90;9.02;;;9.90;64.60;;;;;;4724032;29;117101;-82
2023/03/31 05:24:30;;;;;;;16.23;8.68;;;10.10;64.20;;;;;;4722911;29;115467;-82
2023/03/31 05:26:58;;;;;;;12.57;8.48;;;10.30;63.60;;;;;;4692276;29;117095;-82
2023/03/31 05:29:25;;;;;;;13.43;8.73;;;10.40;63.10;;;;;;4705631;29;114773;-83
2023/03/31 05:32:00;;;;;;;11.93;8.73;;;10.50;62.70;;;;;;4691481;29;114932;-84
2023/03/31 05:34:28;;;;;;;13.75;8.35;;;10.70;62.20;;;;;;4735187;29;115289;-82
2023/03/31 05:36:55;;;;;;;16.08;9.02;;;10.90;61.90;;;;;;4704763;29;114442;-81
2023/03/31 05:39:22;;;;;;;14.15;9.27;;;11.10;61.50;;;;;;4705698;29;114515;-83
2023/03/31 05:41:50;;;;;;;14.57;8.95;;;11.30;61.00;;;;;;4705693;29;114927;-83
2023/03/31 05:44:19;;;;;;;13.48;9.38;;;11.40;60.70;;;;;;4709813;29;115833;-84
2023/03/31 05:46:46;;;;;;;14.00;9.05;;;11.60;60.20;;;;;;4718448;29;114712;-83
2023/03/31 05:49:15;;;;;;;15.82;9.55;;;11.70;59.80;;;;;;4704543;29;114626;-83
2023/03/31 05:51:43;;;;;;;13.25;9.07;;;11.90;59.70;;;;;;4718612;29;114612;-81
2023/03/31 05:54:10;;;;;;;14.90;9.25;;;12.10;59.20;;;;;;4703460;29;115335;-83
2023/03/31 05:56:37;;;;;;;16.50;9.82;;;12.20;58.80;;;;;;4703686;29;115453;-83
2023/03/31 05:59:05;;;;;;;17.80;10.93;;;12.40;58.30;;;;;;4705340;29;114773;-83
2023/03/31 06:01:33;;;;;;;18.45;10.63;;;12.60;58.00;;;;;;4705016;29;117395;-83
2023/03/31 06:04:00;;;;;;;15.82;9.20;;;12.80;57.60;;;;;;4702739;29;116045;-83
2023/03/31 06:06:28;;;;;;;13.40;9.48;;;12.80;57.30;;;;;;4703571;29;115398;-83
2023/03/31 06:08:56;;;;;;;13.50;8.38;;;12.90;56.70;;;;;;4703371;29;114712;-82
2023/03/31 06:11:23;;;;;;;14.10;8.13;;;13.00;56.20;;;;;;4684002;29;114646;-83
2023/03/31 06:13:51;;;;;;;13.38;7.65;;;12.90;55.90;;;;;;4703305;29;115190;-84
2023/03/31 06:16:21;;;;;;;13.73;7.82;;;12.70;55.90;;;;;;4703519;29;115210;-84
2023/03/31 06:18:52;;;;;;;11.57;7.57;;;12.60;56.10;;;;;;4703604;29;114919;-83
2023/03/31 06:21:20;;;;;;;10.20;7.30;;;12.30;56.20;;;;;;4704133;29;114694;-84
2023/03/31 06:23:48;;;;;;;13.30;7.47;;;12.20;56.80;;;;;;4703858;29;115282;-83
2023/03/31 06:26:18;;;;;;;42.65;8.65;;;12.20;57.10;;;;;;4703722;29;114627;-81
2023/03/31 06:28:46;;;;;;;19.95;7.43;;;12.10;57.20;;;;;;4705136;29;115531;-83
2023/03/31 06:31:16;;;;;;;9.32;6.85;;;12.20;57.20;;;;;;4717104;29;115112;-83
2023/03/31 06:33:46;;;;;;;27.58;7.65;;;12.20;57.20;;;;;;4702605;29;115865;-83
2023/03/31 06:36:16;;;;;;;11.75;7.75;;;12.40;56.70;;;;;;4688064;29;114787;-83
2023/03/31 06:38:44;;;;;;;13.15;6.50;;;12.40;56.70;;;;;;4689359;29;114519;-82
2023/03/31 06:45:00;;;;;;;19.25;7.32;;;12.10;56.80;;;;;;4703983;29;115934;-84
2023/03/31 06:47:27;;;;;;;13.32;6.32;;;11.80;57.50;;;;;;4717987;29;114703;-83
2023/03/31 06:49:55;;;;;;;13.43;8.45;;;11.80;57.80;;;;;;4718166;29;114711;-84
2023/03/31 06:52:22;;;;;;;9.18;6.30;;;11.80;57.60;;;;;;4707502;29;114469;-84
2023/03/31 06:54:49;;;;;;;8.35;6.10;;;11.90;57.70;;;;;;4702986;29;115271;-84
2023/03/31 06:57:17;;;;;;;11.30;6.60;;;12.10;57.40;;;;;;4717614;29;116112;-84
2023/03/31 06:59:44;;;;;;;11.50;6.55;;;12.20;57.20;;;;;;4689897;29;117857;-84
2023/03/31 07:02:11;;;;;;;9.77;6.72;;;12.20;57.10;;;;;;4715819;29;114986;-82
2023/03/31 07:04:39;;;;;;;9.77;5.80;;;12.20;56.90;;;;;;4704578;29;115709;-83
2023/03/31 07:07:06;;;;;;;11.13;7.35;;;12.10;56.90;;;;;;4704226;29;114613;-83
2023/03/31 07:09:34;;;;;;;9.25;6.07;;;12.00;57.30;;;;;;4705294;29;114483;-83
2023/03/31 07:12:04;;;;;;;10.40;5.95;;;12.00;57.40;;;;;;4704174;29;114727;-83
2023/03/31 07:14:31;;;;;;;10.05;5.80;;;12.10;57.50;;;;;;4704015;29;115267;-82
2023/03/31 07:16:59;;;;;;;8.43;5.60;;;12.10;57.10;;;;;;4687662;29;117868;-83
2023/03/31 07:19:30;;;;;;;11.77;7.13;;;12.10;57.00;;;;;;4704733;29;114664;-83
2023/03/31 07:21:59;;;;;;;8.32;5.95;;;12.00;57.30;;;;;;4727019;29;114705;-83
2023/03/31 07:24:26;;;;;;;10.95;6.68;;;12.00;57.40;;;;;;4726301;29;114345;-83
2023/03/31 07:26:53;;;;;;;9.18;5.57;;;12.00;57.30;;;;;;4711239;29;114555;-83
2023/03/31 07:29:20;;;;;;;7.55;4.97;;;11.90;57.30;;;;;;4703782;29;114339;-84
2023/03/31 07:31:51;;;;;;;11.15;5.72;;;12.10;57.50;;;;;;4688720;29;114648;-83
2023/03/31 07:34:19;;;;;;;8.90;5.07;;;12.20;57.60;;;;;;4703468;29;115153;-84
2023/03/31 07:36:46;;;;;;;10.30;5.78;;;12.40;57.10;;;;;;4688025;29;115306;-84
2023/03/31 07:39:14;;;;;;;9.57;5.25;;;12.50;56.80;;;;;;4701476;29;114453;-83
2023/03/31 07:41:41;;;;;;;8.10;4.85;;;12.60;56.60;;;;;;4704442;29;114598;-83
2023/03/31 07:44:09;;;;;;;7.53;4.53;;;12.70;56.40;;;;;;4717024;29;115759;-83
2023/03/31 07:46:37;;;;;;;7.47;4.25;;;12.80;56.20;;;;;;4703605;29;114675;-83
2023/03/31 07:49:06;;;;;;;8.93;4.88;;;12.90;55.50;;;;;;4688856;29;114971;-83
2023/03/31 07:51:33;;;;;;;7.15;4.60;;;12.90;55.50;;;;;;4704270;29;114679;-82
2023/03/31 07:54:01;;;;;;;10.20;4.63;;;12.90;55.20;;;;;;4701445;29;115983;-84
2023/03/31 07:56:28;;;;;;;7.45;4.35;;;12.90;54.90;;;;;;4702791;29;116744;-83
2023/03/31 07:58:56;;;;;;;8.90;4.00;;;12.70;55.10;;;;;;4703654;29;114852;-83
2023/03/31 08:01:27;;;;;;;6.50;4.35;;;12.70;55.20;;;;;;4688157;29;116753;-82
2023/03/31 08:03:55;;;;;;;9.68;5.50;;;12.60;55.30;;;;;;4703066;29;115401;-82
2023/03/31 08:06:24;;;;;;;9.40;4.93;;;12.60;55.30;;;;;;4702281;29;114608;-84
2023/03/31 08:08:56;;;;;;;8.23;4.55;;;12.50;55.50;;;;;;4704614;29;114960;-82
2023/03/31 08:11:25;;;;;;;8.60;4.00;;;12.50;55.70;;;;;;4704400;29;114587;-83
2023/03/31 08:13:53;;;;;;;7.47;3.70;;;12.50;55.60;;;;;;4703411;29;116436;-84
2023/03/31 08:16:21;;;;;;;7.20;3.75;;;12.50;55.60;;;;;;4687371;29;115221;-85
2023/03/31 08:18:49;;;;;;;6.03;3.25;;;12.40;55.80;;;;;;4704270;29;114466;-85
2023/03/31 08:21:16;;;;;;;6.55;3.28;;;12.40;56.30;;;;;;4717716;29;114492;-84
2023/03/31 08:23:44;;;;;;;7.32;3.25;;;12.60;55.90;;;;;;4702670;29;115970;-85
2023/03/31 08:26:17;;;;;;;6.47;3.83;;;12.60;55.60;;;;;;4673345;29;115895;-84
2023/03/31 08:28:45;;;;;;;7.07;3.78;;;12.70;55.60;;;;;;4702833;29;114767;-84
2023/03/31 08:31:15;;;;;;;7.57;4.18;;;12.70;55.40;;;;;;4703995;29;114531;-85
2023/03/31 08:33:45;;;;;;;7.35;3.70;;;12.80;55.30;;;;;;4689202;29;115386;-84
2023/03/31 08:36:13;;;;;;;7.35;3.63;;;12.90;54.80;;;;;;4686921;29;114694;-84
2023/03/31 08:38:44;;;;;;;7.60;3.65;;;12.90;54.80;;;;;;4715960;29;114622;-84
2023/03/31 08:41:23;;;;;;;8.45;4.07;;;13.00;54.70;;;;;;4702073;29;114647;-84
2023/03/31 08:43:52;;;;;;;6.65;3.72;;;12.90;55.00;;;;;;4708730;29;115288;-85
2023/03/31 08:46:20;;;;;;;8.98;4.43;;;13.00;55.30;;;;;;4671993;29;118216;-85
2023/03/31 08:48:54;;;;;;;6.57;4.05;;;13.00;54.90;;;;;;4716749;29;114906;-85
2023/03/31 08:51:28;;;;;;;21.63;5.17;;;13.10;55.00;;;;;;4676695;29;114678;-85
2023/03/31 08:54:09;;;;;;;39.67;6.15;;;13.20;54.30;;;;;;4704523;29;115221;-84
2023/03/31 08:56:42;;;;;;;8.02;4.43;;;13.20;54.50;;;;;;4690378;29;114702;-84
2023/03/31 08:59:25;;;;;;;13.48;5.53;;;13.20;54.90;;;;;;4715864;29;114629;-84
2023/03/31 09:02:35;;;;;;;13.27;4.55;;;13.40;54.80;;;;;;4706564;29;114706;-84
2023/03/31 09:05:21;;;;;;;7.20;2.40;;;13.60;54.80;;;;;;4718889;29;116702;-84
2023/03/31 09:08:06;;;;;;;7.97;2.30;;;13.70;54.10;;;;;;4676271;29;114711;-83
2023/03/31 09:10:46;;;;;;;5.05;1.98;;;13.80;53.90;;;;;;4689727;29;114966;-83
2023/03/31 09:13:36;;;;;;;9.82;3.25;;;14.00;53.50;;;;;;4708715;29;114553;-84
2023/03/31 09:16:22;;;;;;;8.50;3.80;;;14.10;53.40;;;;;;4726813;29;115225;-84
2023/03/31 09:18:52;;;;;;;15.52;5.93;;;14.20;53.10;;;;;;4706145;29;114656;-82
2023/03/31 09:21:26;;;;;;;7.05;3.15;;;14.20;53.30;;;;;;4706178;29;114616;-83
2023/03/31 09:24:32;;;;;;;7.72;2.60;;;14.30;52.80;;;;;;4704331;29;114995;-84
2023/03/31 09:27:06;;;;;;;6.78;1.90;;;14.30;52.00;;;;;;4678267;29;115280;-85
2023/03/31 09:30:23;;;;;;;7.05;2.58;;;14.30;51.50;;;;;;4662619;29;114933;-84
2023/03/31 09:33:14;;;;;;;5.15;1.90;;;14.30;51.60;;;;;;4689961;29;114545;-84
2023/03/31 09:35:44;;;;;;;4.78;1.67;;;14.30;51.60;;;;;;4675932;29;114786;-84
2023/03/31 09:38:14;;;;;;;6.10;1.80;;;14.40;51.50;;;;;;4695849;29;115846;-85
2023/03/31 09:40:41;;;;;;;6.53;1.98;;;14.50;51.30;;;;;;4660930;29;118802;-85
2023/03/31 09:43:22;;;;;;;8.05;2.25;;;14.60;51.20;;;;;;4677442;29;114505;-84
2023/03/31 09:45:50;;;;;;;6.18;2.10;;;14.70;50.80;;;;;;4701584;29;114615;-83
2023/03/31 09:48:35;;;;;;;;;;;14.60;51.00;;;;;;4723997;29;115342;-84
2023/03/31 09:51:05;;;;;;;6.25;1.88;;;14.60;52.00;;;;;;4708018;29;115266;-83
2023/03/31 09:53:46;;;;;;;5.90;2.05;;;14.60;51.30;;;;;;4693610;29;114657;-84
2023/03/31 09:56:13;;;;;;;6.53;2.05;;;14.70;50.50;;;;;;4715057;29;114782;-84
2023/03/31 09:58:41;;;;;;;6.15;2.15;;;14.60;50.40;;;;;;4713120;29;115240;-84
2023/03/31 10:01:10;;;;;;;7.00;2.40;;;14.70;50.30;;;;;;4695512;29;117661;-84
2023/03/31 10:03:55;;;;;;;12.35;2.33;;;14.70;50.10;;;;;;4722987;29;114339;-83
2023/03/31 10:06:23;;;;;;;6.72;2.05;;;14.70;49.90;;;;;;4722572;29;114733;-84
2023/03/31 10:08:58;;;;;;;7.28;2.28;;;14.70;50.30;;;;;;4704626;29;115222;-84
2023/03/31 10:11:29;;;;;;;5.03;1.77;;;14.70;50.10;;;;;;4716492;29;114753;-83
2023/03/31 10:14:15;;;;;;;5.47;1.95;;;14.70;50.20;;;;;;4722557;29;114599;-84
2023/03/31 10:16:57;;;;;;;5.65;1.35;;;14.80;49.70;;;;;;4705975;29;114938;-83
2023/03/31 10:19:25;;;;;;;5.88;1.63;;;14.80;49.70;;;;;;4720145;29;115853;-84
2023/03/31 10:22:21;;;;;;;7.05;1.75;;;14.80;49.60;;;;;;4723671;29;115295;-83
2023/03/31 10:24:50;;;;;;;4.90;1.85;;;14.80;49.30;;;;;;4707164;29;114466;-83
2023/03/31 10:27:26;;;;;;;4.80;1.63;;;14.80;49.40;;;;;;4708718;29;114607;-83
2023/03/31 10:30:00;;;;;;;6.18;1.58;;;15.00;49.50;;;;;;4689339;29;116141;-84
2023/03/31 10:32:34;;;;;;;6.07;2.22;;;15.10;49.20;;;;;;4702909;29;114670;-84
2023/03/31 10:35:06;;;;;;;;;;;15.30;49.00;;;;;;4676181;29;114822;-83
2023/03/31 10:37:35;;;;;;;5.57;1.90;;;15.50;50.10;;;;;;4707433;29;114656;-84
2023/03/31 10:40:24;;;;;;;5.85;1.80;;;15.60;49.10;;;;;;4731791;29;115217;-85
2023/03/31 10:43:48;;;;;;;6.72;1.90;;;15.80;48.20;;;;;;4718495;29;115966;-84
2023/03/31 10:46:16;;;;;;;5.18;1.90;;;15.80;47.70;;;;;;4721602;29;114834;-85
2023/03/31 10:48:44;;;;;;;4.65;1.60;;;15.80;47.60;;;;;;4708160;29;114733;-85
2023/03/31 10:51:19;;;;;;;5.32;1.92;;;15.80;47.70;;;;;;4733469;29;115277;-84
2023/03/31 10:53:51;;;;;;;8.68;2.13;;;15.80;46.70;;;;;;4720494;29;114735;-85
2023/03/31 10:56:40;;;;;;;10.00;2.10;;;15.70;47.00;;;;;;4723156;29;114439;-85
2023/03/31 10:59:45;;;;;;;7.43;2.15;;;15.70;47.20;;;;;;4718460;29;114590;-84
2023/03/31 11:02:35;;;;;;;7.25;2.53;;;15.80;47.40;;;;;;4722283;29;115987;-85
2023/03/31 11:05:47;;;;;;;12.18;2.20;;;15.90;47.20;;;;;;4698976;29;118104;-85
2023/03/31 11:08:53;;;;;;;6.45;1.92;;;16.10;47.60;;;;;;4734335;29;116429;-85
2023/03/31 11:11:49;;;;;;;4.32;1.90;;;16.20;47.00;;;;;;4729688;29;114593;-85
2023/03/31 11:14:45;;;;;;;5.75;1.80;;;16.20;46.40;;;;;;4722241;29;115285;-85
2023/03/31 11:17:58;;;;;;;6.38;2.10;;;16.30;45.60;;;;;;4721644;29;114536;-86
2023/03/31 11:21:02;;;;;;;7.57;2.00;;;16.30;46.20;;;;;;4723013;29;114851;-85
2023/03/31 11:23:52;;;;;;;;;;;16.30;45.80;;;;;;4722139;29;114941;-85
2023/03/31 11:26:50;;;;;;;7.45;2.90;;;16.20;47.10;;;;;;4735733;29;115170;-85
2023/03/31 11:29:17;;;;;;;8.88;1.90;;;16.20;46.20;;;;;;4721785;29;114797;-84
2023/03/31 11:32:14;;;;;;;9.10;2.22;;;16.20;46.00;;;;;;4722702;29;114502;-84
2023/03/31 11:34:53;;;;;;;5.90;1.67;;;16.20;45.40;;;;;;4736631;29;114753;-84
2023/03/31 11:37:46;;;;;;;7.25;2.33;;;16.20;45.50;;;;;;4721393;29;117355;-84
2023/03/31 11:40:56;;;;;;;8.07;2.30;;;16.20;45.60;;;;;;4725782;29;116283;-84
2023/03/31 11:43:50;;;;;;;7.15;2.28;;;16.10;45.70;;;;;;4739026;29;114780;-85
2023/03/31 11:46:43;;;;;;;7.32;3.58;;;16.00;45.70;;;;;;4707230;29;114730;-85
2023/03/31 11:49:37;;;;;;;6.07;1.88;;;16.10;45.70;;;;;;4739506;29;114994;-83
2023/03/31 11:52:16;;;;;;;5.47;1.90;;;16.00;45.00;;;;;;4739667;29;115017;-84
2023/03/31 11:54:59;;;;;;;9.27;1.90;;;16.00;44.90;;;;;;4740488;29;114607;-85
2023/03/31 11:57:35;;;;;;;4.35;1.45;;;15.90;44.90;;;;;;4710546;29;114566;-85
2023/03/31 12:00:12;;;;;;;5.57;1.75;;;15.80;45.10;;;;;;4741128;29;116704;-85
2023/03/31 12:03:09;;;;;;;6.13;2.00;;;15.80;44.90;;;;;;4741586;29;115314;-84
2023/03/31 12:05:45;;;;;;;6.05;1.80;;;15.80;45.10;;;;;;4739820;29;114582;-85
2023/03/31 12:08:38;;;;;;;4.55;1.52;;;15.70;45.20;;;;;;4724442;29;114938;-85
2023/03/31 12:11:10;;;;;;;7.65;2.75;;;15.60;45.60;;;;;;4735590;29;115377;-85
2023/03/31 12:14:21;;;;;;;6.18;1.73;;;15.50;45.70;;;;;;4722512;29;117818;-85
2023/03/31 12:17:11;;;;;;;4.22;1.48;;;15.50;45.50;;;;;;4708212;29;114908;-85
2023/03/31 12:19:44;;;;;;;6.97;2.45;;;15.40;45.40;;;;;;4737353;29;115068;-84
2023/03/31 12:22:28;;;;;;;7.55;2.00;;;15.30;45.10;;;;;;4736433;29;116018;-86
2023/03/31 12:24:55;;;;;;;4.13;1.50;;;15.30;45.00;;;;;;4739478;29;115295;-85
2023/03/31 12:27:37;;;;;;;4.60;1.88;;;15.20;45.20;;;;;;4725540;29;114803;-85
2023/03/31 12:30:30;;;;;;;7.10;1.80;;;15.30;44.80;;;;;;4712479;29;115046;-85
2023/03/31 12:33:29;;;;;;;4.88;1.63;;;15.20;45.20;;;;;;4741608;29;114502;-85
2023/03/31 12:36:25;;;;;;;6.68;1.70;;;15.20;45.90;;;;;;4728139;29;114733;-84
2023/03/31 12:39:39;;;;;;;5.30;1.52;;;15.20;46.00;;;;;;4725221;29;114521;-85
2023/03/31 12:42:47;;;;;;;7.97;2.15;;;15.10;46.20;;;;;;4724709;29;114675;-86
2023/03/31 12:45:17;;;;;;;5.22;1.88;;;15.00;46.50;;;;;;4731799;29;115163;-84
2023/03/31 12:48:32;;;;;;;7.10;2.80;;;14.90;46.80;;;;;;4708093;29;118926;-84
2023/03/31 12:51:40;;;;;;;6.82;1.98;;;15.00;47.50;;;;;;4697029;29;116659;-84
2023/03/31 12:54:50;;;;;;;6.47;1.90;;;14.90;47.90;;;;;;4728301;29;114639;-86
2023/03/31 12:58:30;;;;;;;5.55;2.20;;;14.80;48.10;;;;;;4723237;29;115349;-86
2023/03/31 13:01:21;;;;;;;5.85;2.40;;;14.70;48.10;;;;;;4760005;29;113690;-85
2023/03/31 13:03:50;;;;;;;6.63;2.20;;;14.60;48.40;;;;;;4730043;29;114862;-86
2023/03/31 13:06:27;;;;;;;5.85;1.98;;;14.40;48.50;;;;;;4742094;29;114860;-83
2023/03/31 13:09:10;;;;;;;6.68;2.30;;;14.40;48.30;;;;;;4733708;29;115471;-83
2023/03/31 13:11:41;;;;;;;6.78;1.95;;;14.30;48.50;;;;;;4697159;29;117302;-84
2023/03/31 13:14:30;;;;;;;8.25;2.45;;;14.20;48.50;;;;;;4681035;29;116181;-84
2023/03/31 13:17:27;;;;;;;7.53;2.38;;;14.20;49.00;;;;;;4744589;29;114933;-85
2023/03/31 13:20:30;;;;;;;6.13;2.20;;;14.10;48.90;;;;;;4708151;29;115346;-84
2023/03/31 13:23:01;;;;;;;6.25;2.45;;;14.10;49.20;;;;;;4728971;29;114678;-84
2023/03/31 13:25:29;;;;;;;8.35;2.35;;;14.00;49.50;;;;;;4741171;29;114574;-84
2023/03/31 13:28:03;;;;;;;6.07;2.35;;;14.00;49.70;;;;;;4728146;29;114752;-84
2023/03/31 13:30:42;;;;;;;;;;;14.10;49.60;;;;;;4691409;29;118461;-85
2023/03/31 13:33:55;;;;;;;5.95;2.20;;;14.10;49.50;;;;;;4698160;29;118471;-85